Tiempo atmosférico en la estación meteorológica de Caravaca de La Cruz, Murcia (643 m.)



Fecha
DESCASC
Temp. máxima en grados centígrados (hora)
DESCASC
Temp. mínima en grados centígrados (hora)
DESCASC
Temp. media en grados centígrados
DESCASC
Racha de viento máxima en m/sg (hora)
DESCASC
Velocidad máxima media en intervalos de 10 minutos(hora)
DESCASC
Precipitaciones diarias en mm
DESCASC
Precipitaciones de 00:00 a 06:00 en mm
DESCASC
Precipitaciones de 06:00 a 12:00 en mm
DESCASC
Precipitaciones de 12:00 a 18:00 en mm
DESCASC
Precipitaciones de 18:00 a 24:00 en mm
DESCASC
18-10-2018 19.9 (17:30) 8.7 (06:50) 14.3 8.33 (19:10) 4.17 (15:50) 5.6 0 0 0 5.6
17-10-2018 21.7 (15:30) 8.8 (08:40) 15.3 7.78 (14:00) 4.44 (11:50) 0 0 0 0 0
16-10-2018 20.7 (16:20) 10.3 (08:50) 15.5 7.22 (13:00) 3.89 (11:40) 0.6 0.6 0 0 0
15-10-2018 21.7 (15:20) 9.5 (08:20) 15.6 13.61 (02:40) 6.11 (02:40) 0 0 0 0 0
14-10-2018 21.8 (16:00) 12.8 (00:00) 17.3 12.5 (21:30) 6.39 (21:20) 2.2 0 0.2 2 0
13-10-2018 25.3 (14:40) 12.8 (00:00) 19 5.56 (16:20) 3.33 (16:50) 0 0 0 0 0
12-10-2018 26.2 (15:30) 12.8 (00:00) 19.5 6.11 (17:10) 3.61 (03:40) 0 0 0 0 0
11-10-2018 23.5 (15:40) 11.4 (08:00) 17.4 4.72 (01:30) 2.78 (04:10) 0.2 0 0 0.2 0
10-10-2018 23 (15:10) 10.1 (00:00) 16.6 5.28 (21:00) 2.78 (21:00) 0 0 0 0 0
09-10-2018 15.3 (11:30) 12.4 (04:10) 13.8 6.11 (12:50) 3.33 (12:30) 3.7 0.4 0.7 2.6 0
08-10-2018 21.2 (14:10) 13 (06:00) 17.1 5.83 (14:50) 3.33 (16:10) 0 0 0 0 0
07-10-2018 28.3 (12:50) 12.3 (05:40) 20.3 8.61 (00:10) 5.28 (00:40) 0 0 0 0 0
06-10-2018 27 (15:10) 10.8 (07:10) 18.9 6.39 (22:00) 4.17 (23:50) 0 0 0 0 0
05-10-2018 25.4 (15:20) 10.2 (08:20) 17.8 6.39 (17:40) 3.61 (00:30) 0 0 0 0 0
04-10-2018 26.3 (16:10) 10.8 (00:00) 18.5 6.39 (17:20) 3.89 (08:30) 0 0 0 0 0
03-10-2018 25.5 (15:50) 8.5 (00:00) 17 6.11 (15:50) 3.61 (04:30) 0 0 0 0 0
02-10-2018 23.1 (14:40) 9.7 (00:00) 16.4 6.11 (06:50) 4.17 (07:20) 0 0 0 0 0
01-10-2018 26.9 (15:40) 13.2 (00:00) 20 6.67 (15:10) 3.89 (03:20) 0 0 0 0 0
30-09-2018 27.7 (16:00) 9.4 (00:00) 18.6 5.83 (23:40) 4.17 (23:40) 0 0 0 0 0
29-09-2018 27 (14:30) 11 (00:00) 19 6.11 (07:10) 4.17 (07:10) 0 0 0 0 0
28-09-2018 25.4 (16:10) 12 (00:00) 18.7 5.56 (18:10) 3.33 (18:10) 0 0 0 0 0
27-09-2018 22.7 (13:10) 16.3 (00:00) 19.5 6.11 (00:10) 3.06 (20:20) 1 1 0 0 0
26-09-2018 24.5 (16:10) 17.3 (00:00) 20.9 8.61 (17:50) 3.89 (17:50) 16.6 6.2 0 1.2 9.2
25-09-2018 28.1 (15:10) 16.2 (00:00) 22.2 7.5 (17:50) 4.17 (17:50) 0 0 0 0 0
24-09-2018 32.8 (14:40) 15.3 (00:00) 24 7.5 (18:40) 3.89 (18:40) 0 0 0 0 0
23-09-2018 32.6 (15:00) 15.5 (07:40) 24 6.11 (21:00) 3.61 (05:20) 0 0 0 0 0
22-09-2018 31.3 (15:20) 15.8 (08:20) 23.5 6.11 (02:10) 4.17 (02:10) 0 0 0 0 0
21-09-2018 31.5 (15:20) 14.1 (07:40) 22.8 5.83 (14:00) 3.33 (20:50) 0 0 0 0 0
20-09-2018 29.4 (15:20) 16.4 (05:30) 22.9 5.83 (17:40) 3.06 (21:10) 0 0 0 0 0

Gráficas

Temp. máximas Temp. mínimas Temp. medias Precipitaciones Rachas de viento máximas Velocidades máximas media en intervalos de 10 minutos

Datos horarios

Fecha y hora oficial Temperatura (ºC) Velocidad del viento (km/h) Dirección del viento Racha (km/h) Dirección de racha Precipitación (mm) Presión (hPa) Tendencia (hPa) Humedad (%)
2018-10-19 23:00:00 10.5 3 Oeste 10 Noroeste 0 942.3 2 83
2018-10-19 22:00:00 12.3 6 Noroeste 11 Noroeste 0 941.6 2.2 73
2018-10-19 21:00:00 12.1 6 Noroeste 9 Noroeste 0 941.1 2.1 81
2018-10-19 20:00:00 13.9 3 Oeste 9 Sudoeste 0 940.3 1.8 73
2018-10-19 19:00:00 17.3 4 Sudoeste 15 Sudoeste 0 939.4 0.8 57
2018-10-19 18:00:00 18.3 4 Noroeste 6 Noroeste 0 939 0.1 55
2018-10-19 17:00:00 17.9 2 Nordeste 7 Sudeste 0 938.5 -1 51
2018-10-19 16:00:00 18.5 4 Sudeste 15 Sur 0 938.6 -0.9 49
2018-10-19 15:00:00 17.3 8 Sudoeste 16 Sudoeste 0 938.9 -0.3 54
2018-10-19 14:00:00 16.5 11 Sudoeste 18 Sudoeste 0 939.5 0.6 55
2018-10-19 13:00:00 17.4 10 Sudoeste 19 Sudoeste 0 939.5 1 50
2018-10-19 12:00:00 16.4 11 Sudoeste 17 Sudoeste 0 939.2 1.4 52
2018-10-19 11:00:00 14.1 5 Sudoeste 9 Sudoeste 0 938.9 1.3 81
2018-10-19 10:00:00 12.9 0 Calma 7 Oeste 0 938.5 1.4 92
2018-10-19 09:00:00 12 4 Sudoeste 14 Oeste 0.2 937.8 0.7 92
2018-10-19 08:00:00 11.8 9 Oeste 13 Oeste 0 937.6 0.8 93
2018-10-19 07:00:00 11.3 3 Nordeste 7 Sudoeste 0 937.1 0.4 93
2018-10-19 06:00:00 11.4 4 Sudoeste 7 Oeste 0 937.1 0.8 93
2018-10-19 05:00:00 11.8 3 Oeste 9 Noroeste 0 936.8 -0.1 93
2018-10-19 04:00:00 11.8 2 Oeste 10 Oeste 0 936.7 0.2 92
2018-10-19 03:00:00 11.8 4 Sudoeste 9 Sur 0 936.3 -0.4 92
2018-10-19 02:00:00 12.6 5 Sur 11 Sur 0.2 936.9 0.1 92
2018-10-19 01:00:00 12.6 6 Oeste 10 Oeste 0 936.5 0 91
2018-10-19 00:00:00 12.8 4 Sur 6 Sur 0 936.7 0 91
2018-10-18 23:00:00 13.1 6 Sur 10 Sudeste 0.2 936.8 0.8 90
2018-10-18 22:00:00 13.2 5 Nordeste 10 Nordeste 0.2 936.5 2 90
2018-10-18 21:00:00 13.4 6 Oeste 14 Sudoeste 3.8 936.7 2.3 89
2018-10-18 20:00:00 14.3 9 Nordeste 30 Norte 1.4 936 1.7 82
2018-10-18 19:00:00 17.1 14 Nordeste 26 Nordeste 0 934.5 -0.3 64
2018-10-18 18:00:00 18.7 6 Nordeste 24 Nordeste 0 934.4 -0.8 60
2018-10-18 17:00:00 19.5 10 Este 24 Nordeste 0 934.3 -1.7 51
2018-10-18 16:00:00 19.4 10 Nordeste 27 Este 0 934.8 -2.1 52
2018-10-18 15:00:00 18.4 9 Nordeste 22 Nordeste 0 935.2 -1.8 57
2018-10-18 14:00:00 18.1 5 Nordeste 20 Nordeste 0 936 -0.9 58
2018-10-18 13:00:00 17.8 8 Nordeste 14 Nordeste 0 936.9 -0.1 61
2018-10-18 12:00:00 16.5 6 Nordeste 14 Este 0 937 -0.1 69
2018-10-18 11:00:00 15.1 4 Sudeste 7 Sudeste 0 936.9 -0.1 72
2018-10-18 10:00:00 14.7 2 Sudeste 10 Sudoeste 0 937 -0.3 75
2018-10-18 09:00:00 10.4 2 Oeste 12 Sudoeste 0 937.1 -0.3 90
2018-10-18 08:00:00 9.2 4 Oeste 15 Oeste 0 937 -0.5 88
2018-10-18 07:00:00 9 6 Oeste 12 Sudoeste 0 937.3 -1.1 90
2018-10-18 06:00:00 9.3 4 Oeste 13 Oeste 0 937.4 -1.6 87
2018-10-18 05:00:00 9 5 Oeste 11 Oeste 0 937.5 -2 88
2018-10-18 04:00:00 10.5 9 Oeste 14 Oeste 0 938.4 -1.9 80
2018-10-18 03:00:00 9.8 6 Sudoeste 10 Sudoeste 0 939 -1.5 84
2018-10-18 02:00:00 10.6 3 Sudoeste 13 Oeste 0 939.5 -1 80
2018-10-18 01:00:00 11.8 8 Oeste 13 Oeste 0 940.3 0.1 75
2018-10-18 00:00:00 12.3 4 Oeste 14 Sudoeste 0 940.5 0.1 74
2018-10-17 23:00:00 14 4 Oeste 12 Oeste 0 940.5 0.6 72
2018-10-17 22:00:00 15.8 7 Oeste 20 Oeste 0 940.2 0.6 66
2018-10-17 21:00:00 15.6 9 Oeste 16 Oeste 0 940.4 0.6 58
2018-10-17 20:00:00 15.9 9 Noroeste 14 Noroeste 0 939.9 -0.2 57
2018-10-17 19:00:00 18 5 Noroeste 12 Este 0 939.6 -0.8 56
2018-10-17 18:00:00 20.8 7 Este 19 Nordeste 0 939.8 -1.3 39
2018-10-17 17:00:00 21.1 9 Nordeste 28 Este 0 940.1 -2 38
2018-10-17 16:00:00 21.2 10 Nordeste 25 Nordeste 0 940.4 -2.6 39
2018-10-17 15:00:00 20.7 11 Nordeste 27 Este 0 941.1 -2.1 41
2018-10-17 14:00:00 20.7 15 Nordeste 28 Este 0 942.1 -1.4 41
2018-10-17 13:00:00 20.3 13 Este 27 Este 0 943 -0.5 46
2018-10-17 12:00:00 19.1 13 Nordeste 25 Nordeste 0 943.2 -0.2 53
2018-10-17 11:00:00 18.3 13 Este 21 Este 0 943.5 0.4 59
2018-10-17 10:00:00 15.7 4 Sur 7 Sur 0 943.5 0.5 72
2018-10-17 09:00:00 9.6 3 Oeste 5 Noroeste 0 943.4 0.7 91
2018-10-17 08:00:00 9.3 0 Calma 8 Noroeste 0 943.1 0.3 89
2018-10-17 07:00:00 10 2 Norte 12 Sudoeste 0 943 -0.2 85
2018-10-17 06:00:00 10 0 Calma 9 Oeste 0 942.7 -0.8 88
2018-10-17 05:00:00 11.1 0 Calma 10 Sudoeste 0 942.8 -0.7 85
2018-10-17 04:00:00 11.8 7 Sudoeste 14 Oeste 0 943.2 -0.3 83
2018-10-17 03:00:00 11.9 3 Oeste 7 Oeste 0 943.5 -0.1 85
2018-10-17 02:00:00 12.5 4 Oeste 7 Oeste 0 943.5 0 84
2018-10-17 01:00:00 12.6 5 Sudoeste 8 Sudoeste 0 943.5 0.5 83
2018-10-17 00:00:00 13.6 2 Este 12 Nordeste 0 943.6 1 77
2018-10-16 23:00:00 15.3 7 Norte 19 Norte 0 943.5 1.9 72
2018-10-16 22:00:00 15.8 6 Norte 17 Nordeste 0 943 2.3 64
2018-10-16 21:00:00 16.8 7 Norte 22 Nordeste 0 942.6 2.2 61
2018-10-16 20:00:00 17.6 7 Nordeste 19 Nordeste 0 941.6 1.4 55
2018-10-16 19:00:00 17.9 3 Norte 13 Nordeste 0 940.7 0.7 58
2018-10-16 18:00:00 19.3 6 Nordeste 23 Nordeste 0 940.4 0.4 47
2018-10-16 17:00:00 20.7 10 Nordeste 25 Este 0 940.2 -0.1 41
2018-10-16 16:00:00 20.5 12 Este 22 Nordeste 0 940 -0.6 42
2018-10-16 15:00:00 20 11 Nordeste 25 Este 0 940 -0.1 46
2018-10-16 14:00:00 19.3 10 Nordeste 24 Este 0 940.3 0.1 50
2018-10-16 13:00:00 18.2 13 Nordeste 26 Nordeste 0 940.6 0.7 57
2018-10-16 12:00:00 17.4 12 Este 23 Este 0 940.1 0.9 62
2018-10-16 11:00:00 15.1 3 Este 9 Sudeste 0 940.2 1.4 71
2018-10-16 10:00:00 11.9 4 Sudoeste 8 Sudoeste 0 939.9 1.5 92
2018-10-16 09:00:00 10.3 4 Oeste 5 Oeste 0 939.2 1.2 91
2018-10-16 08:00:00 10.6 4 Oeste 6 Oeste 0 938.8 1 91
2018-10-16 07:00:00 10.9 2 Oeste 5 Sur 0 938.4 0.4 91
2018-10-16 06:00:00 11 3 Sur 6 Oeste 0 938 -0.5 90
2018-10-16 05:00:00 11.1 4 Sur 9 Oeste 0 937.8 -0.5 89
2018-10-16 04:00:00 11.6 3 Noroeste 6 Noroeste 0.4 938 -0.3 89
2018-10-16 03:00:00 11.6 3 Noroeste 5 Oeste 0.2 938.5 0.2 87
2018-10-16 02:00:00 12.4 3 Noroeste 5 Este 0 938.3 0.3 76
2018-10-16 01:00:00 12.7 3 Nordeste 8 Norte 0 938.3 0.6 70
2018-10-16 00:00:00 12.8 5 Norte 14 Oeste 0 938.3 0.8 68
2018-10-15 23:00:00 12.6 7 Oeste 12 Oeste 0 938 1 70
2018-10-15 22:00:00 14.7 5 Oeste 8 Sudoeste 0 937.7 0.8 58
2018-10-15 21:00:00 13.9 3 Noroeste 9 Noroeste 0 937.5 1 65
2018-10-15 20:00:00 15.7 4 Norte 12 Nordeste 0 937 1.2 55
2018-10-15 19:00:00 18.3 6 Nordeste 19 Sur 0 936.9 1.2 42
2018-10-15 18:00:00 19.9 6 Sur 18 Sudoeste 0 936.5 0.2 33
2018-10-15 17:00:00 21.4 9 Sur 26 Sur 0 935.8 -1.5 32
2018-10-15 16:00:00 20.9 11 Sur 26 Sur 0 935.7 -2 31
2018-10-15 15:00:00 21.5 10 Sur 28 Sudoeste 0 936.3 -2 33
2018-10-15 14:00:00 20.3 14 Sudoeste 25 Sudoeste 0 937.3 -1.1 36
2018-10-15 13:00:00 18.9 14 Sudoeste 24 Sur 0 937.7 -0.5 36
2018-10-15 12:00:00 17.5 12 Sudoeste 26 Sudoeste 0 938.3 0.7 35
2018-10-15 11:00:00 15.4 12 Sudoeste 24 Sudoeste 0 938.4 1.3 45
2018-10-15 10:00:00 14.2 10 Sudoeste 21 Sudoeste 0 938.2 1.5 56
2018-10-15 09:00:00 10 8 Oeste 12 Sudoeste 0 937.6 1.1 73
2018-10-15 08:00:00 10.4 4 Oeste 10 Sudoeste 0 937.1 0.8 73
2018-10-15 07:00:00 11.7 5 Sur 13 Sudoeste 0 936.7 0.3 64
2018-10-15 06:00:00 12.1 8 Oeste 15 Sudoeste 0 936.5 0.5 61
2018-10-15 05:00:00 12.6 11 Sudoeste 32 Oeste 0 936.3 0.4 57
2018-10-15 04:00:00 13.8 16 Oeste 42 Oeste 0 936.4 -0.2 49
2018-10-15 03:00:00 14.1 13 Oeste 49 Oeste 0 936 -0.6 46
2018-10-15 02:00:00 14.1 21 Oeste 42 Oeste 0 935.9 -0.4 45
2018-10-15 01:00:00 13.9 14 Oeste 35 Oeste 0 936.6 0.7 45
2018-10-15 00:00:00 13.4 7 Oeste 36 Oeste 0 936.6 0.9 45
2018-10-14 23:00:00 13.9 9 Oeste 33 Sudoeste 0 936.3 0.9 43
2018-10-14 22:00:00 14.5 12 Sudoeste 45 Oeste 0 935.9 1.8 39
2018-10-14 21:00:00 14.8 16 Oeste 37 Oeste 0 935.7 2.1 45
2018-10-14 20:00:00 15.2 18 Sudoeste 37 Oeste 0 935.4 2.1 45
2018-10-14 19:00:00 16.4 6 Sudoeste 42 Sudoeste 0 934.1 0.6 47
2018-10-14 18:00:00 18.1 17 Oeste 39 Oeste 0 933.6 -0.5 41
2018-10-14 17:00:00 20.4 13 Sudoeste 37 Sudoeste 0 933.3 -2.6 50
2018-10-14 16:00:00 21.7 16 Sudoeste 37 Sudoeste 0 933.5 -3.5 51
2018-10-14 15:00:00 17.4 21 Sudoeste 36 Sudoeste 0.4 934.1 -3.4 66
2018-10-14 14:00:00 17.2 13 Sudoeste 24 Sudoeste 1.2 935.9 -1.5 84
2018-10-14 13:00:00 17.8 5 Sur 15 Sudoeste 0.4 937 -0.5 85
2018-10-14 12:00:00 17.7 4 Sur 17 Sudoeste 0.2 937.5 0.3 82
2018-10-14 11:00:00 18.2 10 Sudoeste 18 Sudoeste 0 937.4 0 73
2018-10-14 10:00:00 17.9 12 Sudoeste 19 Oeste 0 937.5 -0.2 74
2018-10-14 09:00:00 16.6 11 Sudoeste 19 Oeste 0 937.2 -0.9 80
2018-10-14 08:00:00 16.6 8 Sudoeste 18 Sur 0 937.4 -1.6 82
2018-10-14 07:00:00 17.1 8 Sudoeste 17 Sudoeste 0 937.7 -1.7 81
2018-10-14 06:00:00 17.5 6 Sudoeste 12 Sudoeste 0 938.1 -1.7 82
2018-10-14 05:00:00 17.8 5 Sudoeste 14 Sur 0 939 -1.7 81
2018-10-14 04:00:00 17.7 4 Sur 11 Sur 0 939.4 -1.7 83
2018-10-14 03:00:00 17.4 2 Este 4 Nordeste 0 939.8 -2.2 86
2018-10-14 02:00:00 17.4 2 Nordeste 7 Este 0 940.7 -1.7 86
2018-10-14 01:00:00 17.4 0 Calma 8 Sudoeste 0 941.1 -1.4 86
2018-10-14 00:00:00 17.8 4 Oeste 12 Sudoeste 0 942 -0.5 82
2018-10-13 23:00:00 18.8 4 Sudoeste 12 Sudoeste 0 942.4 0 80
2018-10-13 22:00:00 18.7 7 Oeste 17 Oeste 0 942.5 0.2 81
2018-10-13 21:00:00 18.1 6 Oeste 13 Oeste 0 942.5 0.1 83
2018-10-13 20:00:00 19.2 5 Noroeste 9 Noroeste 0 942.4 -0.3 80
2018-10-13 19:00:00 21.6 3 Norte 16 Nordeste 0 942.3 -0.9 71
2018-10-13 18:00:00 23.2 9 Este 17 Este 0 942.4 -1.6 63
2018-10-13 17:00:00 23.9 10 Este 20 Este 0 942.7 -2.3 59
2018-10-13 16:00:00 24.6 11 Este 18 Este 0 943.2 -2.7 53
2018-10-13 15:00:00 25.2 8 Este 16 Este 0 944 -2.5 51
2018-10-13 14:00:00 24.7 5 Este 14 Nordeste 0 945 -1.8 52
2018-10-13 13:00:00 23.6 6 Este 14 Este 0 945.9 -1 56
2018-10-13 12:00:00 23.1 6 Este 11 Sudeste 0 946.5 0 60
2018-10-13 11:00:00 20.6 3 Nordeste 8 Este 0 946.8 0.6 71
2018-10-13 10:00:00 18.1 3 Este 13 Sudoeste 0 946.9 0.5 79
2018-10-13 09:00:00 14.2 8 Oeste 13 Sudoeste 0 946.5 0 91
2018-10-13 08:00:00 13 3 Oeste 14 Oeste 0 946.2 -0.8 90
2018-10-13 07:00:00 13.7 6 Oeste 12 Oeste 0 946.4 -1.3 90
2018-10-13 06:00:00 14.7 7 Oeste 14 Oeste 0 946.5 -1.6 89
2018-10-13 05:00:00 15 9 Oeste 13 Oeste 0 947 -1.1 88
2018-10-13 04:00:00 14.3 4 Oeste 7 Oeste 0 947.7 -0.7 89
2018-10-13 03:00:00 15.8 6 Oeste 17 Oeste 0 948.1 -0.8 86
2018-10-13 02:00:00 16.3 6 Oeste 12 Sudoeste 0 948.1 -1.2 85
2018-10-13 01:00:00 16.9 9 Oeste 12 Sudoeste 0 948.4 -0.8 83
2018-10-13 00:00:00 18.4 8 Oeste 16 Oeste 0 948.9 0.1 84
2018-10-12 23:00:00 19 8 Sudoeste 18 Oeste 0 949.3 0.9 81
2018-10-12 22:00:00 18.7 6 Oeste 11 Sudoeste 0 949.2 1.2 79
2018-10-12 21:00:00 18.9 5 Noroeste 8 Noroeste 0 948.8 1.1 78
2018-10-12 20:00:00 20.3 4 Noroeste 15 Este 0 948.4 0.7 73
2018-10-12 19:00:00 23.1 6 Este 15 Este 0 948 0 60
2018-10-12 18:00:00 24.7 8 Este 22 Este 0 947.7 -0.8 53
2018-10-12 17:00:00 25.8 11 Este 18 Este 0 947.7 -1.5 48
2018-10-12 16:00:00 25.7 7 Este 14 Este 0 948 -1.8 47
2018-10-12 15:00:00 25.5 3 Este 13 Este 0 948.5 -1.3 47
2018-10-12 14:00:00 25.1 7 Este 15 Este 0 949.2 -0.4 50
2018-10-12 13:00:00 24.2 7 Sudeste 15 Este 0 949.8 0.8 53
2018-10-12 12:00:00 22.5 4 Nordeste 10 Este 0 949.8 1.5 60
2018-10-12 11:00:00 21.4 3 Sur 10 Sudoeste 0 949.6 2.2 62
2018-10-12 10:00:00 17.5 7 Sudoeste 13 Oeste 0 949 1.8 74
2018-10-12 09:00:00 13.8 9 Oeste 18 Oeste 0 948.3 1.7 85
2018-10-12 08:00:00 12.8 4 Oeste 17 Oeste 0 947.4 0.9 88
2018-10-12 07:00:00 13.5 7 Oeste 18 Oeste 0 947.2 0.8 87
2018-10-12 06:00:00 13.4 6 Oeste 21 Oeste 0 946.6 0 88
2018-10-12 05:00:00 14.1 12 Oeste 19 Oeste 0 946.5 0 87
2018-10-12 04:00:00 14 2 Sudoeste 19 Oeste 0 946.4 0.2 86
2018-10-12 03:00:00 14.8 9 Oeste 17 Oeste 0 946.6 0.5 85
2018-10-12 02:00:00 14.8 8 Oeste 16 Oeste 0 946.5 1.2 88
2018-10-12 01:00:00 14.5 5 Oeste 12 Oeste 0 946.2 1.3 90
2018-10-12 00:00:00 15.3 2 Oeste 13 Oeste 0 946.1 1.8 87
2018-10-11 23:00:00 16.3 6 Sudoeste 12 Sudoeste 0 945.3 2.1 87
2018-10-11 22:00:00 16.8 5 Sudoeste 10 Oeste 0 944.9 2.3 86
2018-10-11 21:00:00 17.6 3 Oeste 15 Oeste 0 944.3 2.1 83
2018-10-11 20:00:00 18.7 7 Oeste 13 Oeste 0 943.2 1.6 81
2018-10-11 19:00:00 20.2 4 Oeste 12 Oeste 0 942.6 1.4 78
2018-10-11 18:00:00 21.2 3 Noroeste 8 Noroeste 0.2 942.2 0.9 79
2018-10-11 17:00:00 21.8 3 Norte 12 Nordeste 0 941.6 0.1 68
2018-10-11 16:00:00 22.9 5 Nordeste 14 Este 0 941.2 -0.6 62
2018-10-11 15:00:00 22.7 6 Nordeste 17 Sudeste 0 941.3 -0.5 60
2018-10-11 14:00:00 22.6 4 Nordeste 10 Este 0 941.5 0.3 61
2018-10-11 13:00:00 21.2 4 Este 10 Este 0 941.8 1 66
2018-10-11 12:00:00 17.8 3 Sudeste 10 Este 0 941.8 1.6 76
2018-10-11 11:00:00 17.1 3 Nordeste 12 Sur 0 941.2 1.1 78
2018-10-11 10:00:00 15.9 3 Sudoeste 15 Oeste 0 940.8 1.3 79
2018-10-11 09:00:00 12 4 Noroeste 6 Oeste 0 940.2 1.3 91
2018-10-11 08:00:00 11.5 0 Calma 14 Oeste 0 940.1 1.2 88
2018-10-11 07:00:00 12.1 5 Sudoeste 14 Oeste 0 939.5 0.7 89
2018-10-11 06:00:00 11.9 4 Sudoeste 14 Oeste 0 938.9 -0.3 90
2018-10-11 05:00:00 12.8 7 Sudoeste 17 Oeste 0 938.9 0 87
2018-10-11 04:00:00 12.9 9 Oeste 15 Oeste 0 938.8 -0.3 89
2018-10-11 03:00:00 12.8 4 Oeste 13 Oeste 0 939.2 0.4 87
2018-10-11 02:00:00 13.5 6 Sudoeste 17 Sudoeste 0 938.9 0.4 86
2018-10-11 01:00:00 13.8 6 Sudoeste 10 Sudoeste 0 939.1 1.1 88
2018-10-11 00:00:00 15 6 Sudoeste 14 Oeste 0 938.8 1.4 85
2018-10-10 23:00:00 15.6 9 Oeste 12 Sudoeste 0 938.5 1.6 83
2018-10-10 22:00:00 16.7 5 Sudoeste 18 Oeste 0 938 2 81
2018-10-10 21:00:00 17.4 10 Oeste 19 Oeste 0 937.4 1.7 79
2018-10-10 20:00:00 17.8 5 Noroeste 9 Noroeste 0 936.9 1.2 77
2018-10-10 19:00:00 19.4 4 Este 9 Nordeste 0 936 0.4 70
2018-10-10 18:00:00 20.2 5 Norte 17 Este 0 935.7 -0.1 64
2018-10-10 17:00:00 22 5 Sudeste 16 Este 0 935.7 -0.6 53
2018-10-10 16:00:00 22.2 7 Nordeste 15 Nordeste 0 935.6 -1.1 56
2018-10-10 15:00:00 22.8 4 Sudoeste 12 Sudeste 0 935.8 -0.9 51
2018-10-10 14:00:00 21.1 8 Nordeste 16 Nordeste 0 936.3 -0.4 57
2018-10-10 13:00:00 20.5 5 Sudeste 13 Este 0 936.7 -0.1 60
2018-10-10 12:00:00 18.9 7 Este 16 Este 0 936.7 0 64
2018-10-10 11:00:00 17.4 3 Sudoeste 15 Sudoeste 0 936.7 0.4 65
2018-10-10 10:00:00 12.6 6 Noroeste 14 Oeste 0 936.8 0.9 91
2018-10-10 09:00:00 10.9 4 Oeste 8 Sudoeste 0 936.7 0.4 93
2018-10-10 08:00:00 10.8 4 Oeste 9 Oeste 0 936.3 0 92
2018-10-10 07:00:00 11 5 Oeste 9 Oeste 0 935.9 -1 92
2018-10-10 06:00:00 10.6 4 Oeste 6 Noroeste 0 936.3 -1.3 91
2018-10-10 05:00:00 11 2 Oeste 13 Oeste 0 936.3 -1.2 90
2018-10-10 04:00:00 11.9 5 Sudoeste 13 Sudoeste 0 936.9 -0.8 89
2018-10-10 03:00:00 12.4 4 Oeste 15 Oeste 0 937.6 -0.3 90
2018-10-10 02:00:00 11.2 3 Sudoeste 6 Noroeste 0 937.5 -0.9 91
2018-10-10 01:00:00 12.1 5 Noroeste 10 Sudoeste 0 937.7 -0.8 90
2018-10-10 00:00:00 12.9 2 Oeste 5 Oeste 0 937.9 -0.5 89
2018-10-09 23:00:00 13.8 0 Calma 9 Oeste 0 938.4 0.1 88
2018-10-09 22:00:00 13.6 4 Oeste 8 Noroeste 0 938.5 0.3 89
2018-10-09 21:00:00 13.8 4 Noroeste 8 Nordeste 0 938.4 0.4 90
2018-10-09 20:00:00 13.8 3 Nordeste 6 Nordeste 0 938.3 -0.2 88
2018-10-09 19:00:00 14.7 3 Nordeste 11 Este 0 938.2 -0.5 85
2018-10-09 18:00:00 15.3 5 Este 10 Norte 0.2 938 -0.8 81
2018-10-09 17:00:00 14.9 6 Nordeste 13 Nordeste 0.4 938.5 -0.9 85
2018-10-09 16:00:00 14.8 6 Norte 12 Norte 0.4 938.7 -1.1 84
2018-10-09 15:00:00 14.5 6 Nordeste 17 Este 0.4 938.8 -1.2 86
2018-10-09 14:00:00 14.2 9 Este 21 Este 1.2 939.4 -0.5 85
2018-10-09 13:00:00 14.7 9 Este 22 Este 0 939.8 0.1 79
2018-10-09 12:00:00 15 5 Este 13 Este 0 940 0.6 79
2018-10-09 11:00:00 14.1 0 Calma 8 Nordeste 0.4 939.9 0.6 86
2018-10-09 10:00:00 13 5 Este 9 Nordeste 0.2 939.7 0.3 86
2018-10-09 09:00:00 12.9 3 Nordeste 8 Norte 0 939.4 -0.3 85
2018-10-09 08:00:00 12.4 2 Sudeste 6 Sudeste 0 939.3 -0.7 87
2018-10-09 07:00:00 12.5 3 Este 5 Sur 0 939.4 -1.2 85
2018-10-09 06:00:00 12.7 4 Nordeste 7 Nordeste 0 939.7 -1.7 82
2018-10-09 05:00:00 12.5 3 Norte 7 Este 0 940 -1.6 82
2018-10-09 04:00:00 12.5 3 Norte 10 Nordeste 0 940.6 -1.2 87
2018-10-09 03:00:00 12.9 3 Norte 18 Sudeste 0 941.4 -0.5 86
2018-10-09 02:00:00 13 6 Nordeste 17 Este 0 941.6 -0.4 86
2018-10-09 01:00:00 13.9 4 Sudeste 19 Este 0 941.8 0 80
2018-10-09 00:00:00 14.4 6 Nordeste 14 Nordeste 0 941.9 0.4 78
2018-10-08 23:00:00 14.3 5 Nordeste 12 Nordeste 0 942 1 79
2018-10-08 22:00:00 14.3 10 Nordeste 19 Nordeste 0 941.8 1 81
2018-10-08 21:00:00 15.1 10 Nordeste 18 Nordeste 0 941.5 0.9 77
2018-10-08 20:00:00 16.3 3 Nordeste 17 Este 0 941 0.4 69
2018-10-08 19:00:00 16.9 6 Nordeste 15 Este 0 940.8 0.3 67
2018-10-08 18:00:00 17.6 8 Este 20 Este 0 940.6 -0.3 63
2018-10-08 17:00:00 18.2 9 Este 20 Este 0 940.6 -0.9 59
2018-10-08 16:00:00 18.6 10 Nordeste 19 Este 0 940.5 -1.7 54
2018-10-08 15:00:00 19.7 6 Este 21 Este 0 940.9 -1.9 50
2018-10-08 14:00:00 21 6 Sudeste 18 Nordeste 0 941.5 -1.3 47
2018-10-08 13:00:00 19.3 4 Sudeste 14 Sudeste 0 942.2 -0.2 55
2018-10-08 12:00:00 16.1 5 Nordeste 15 Este 0 942.8 0.7 63
2018-10-08 11:00:00 15.3 6 Nordeste 10 Nordeste 0 942.8 0.9 70
2018-10-08 10:00:00 14.5 5 Sur 8 Sur 0 942.4 0.7 82
2018-10-08 09:00:00 13.8 3 Sur 6 Sur 0 942.1 0.4 84
2018-10-08 08:00:00 13.7 3 Sur 6 Sudeste 0 941.9 -0.1 83
2018-10-08 07:00:00 13.4 3 Nordeste 6 Norte 0 941.7 -0.7 88
2018-10-08 06:00:00 13 3 Noroeste 5 Noroeste 0 941.7 -1.3 88
2018-10-08 05:00:00 13.6 3 Noroeste 5 Noroeste 0 942 -1.3 86
2018-10-08 04:00:00 14 2 Norte 7 Nordeste 0 942.4 -1 85
2018-10-08 03:00:00 15 5 Nordeste 11 Norte 0 943 -0.4 79
2018-10-08 02:00:00 14.9 4 Norte 12 Nordeste 0 943.3 -0.1 80
2018-10-08 01:00:00 14.9 6 Norte 12 Nordeste 0 943.4 0.3 82
2018-10-08 00:00:00 15.4 3 Norte 9 Nordeste 0 943.4 0.9 82
2018-10-07 23:00:00 16.8 6 Nordeste 16 Nordeste 0 943.4 2 76
2018-10-07 22:00:00 17.1 8 Nordeste 22 Nordeste 0 943.1 2.2 77
2018-10-07 21:00:00 17.6 7 Nordeste 18 Nordeste 0 942.5 2 77
2018-10-07 20:00:00 18.8 8 Nordeste 19 Nordeste 0 941.4 1 72
2018-10-07 19:00:00 21 12 Este 22 Este 0 940.9 0.6 64
2018-10-07 18:00:00 23 13 Este 25 Este 0 940.5 0 56
2018-10-07 17:00:00 24.5 13 Este 31 Este 0 940.4 -0.8 49
2018-10-07 16:00:00 26.9 8 Nordeste 23 Nordeste 0 940.3 -1.2 29
2018-10-07 15:00:00 27.6 12 Este 21 Este 0 940.5 -1.3 29
2018-10-07 14:00:00 27.2 11 Este 23 Nordeste 0 941.2 -0.8 29
2018-10-07 13:00:00 27 11 Este 21 Sudoeste 0 941.5 -0.1 30
2018-10-07 12:00:00 26.3 12 Sur 24 Sudoeste 0 941.8 0.4 30
2018-10-07 11:00:00 23.9 10 Sur 19 Sur 0 942 0.7 36
2018-10-07 10:00:00 20.2 5 Sudoeste 12 Sur 0 941.6 0.4 49
2018-10-07 09:00:00 15.4 4 Sudoeste 17 Sudoeste 0 941.4 0.3 67
2018-10-07 08:00:00 15.8 10 Sudoeste 17 Sudoeste 0 941.3 0.1 60
2018-10-07 07:00:00 12.3 3 Oeste 10 Oeste 0 941.2 -0.5 74
2018-10-07 06:00:00 13.1 9 Oeste 13 Oeste 0 941.1 -1.3 65
2018-10-07 05:00:00 13.9 5 Noroeste 26 Sudoeste 0 941.2 -1.1 57
2018-10-07 04:00:00 16.1 13 Oeste 27 Oeste 0 941.7 -0.9 45
2018-10-07 03:00:00 17.3 12 Oeste 24 Oeste 0 942.4 -0.6 40
2018-10-07 02:00:00 17.9 17 Oeste 26 Oeste 0 942.3 -0.4 38
2018-10-07 01:00:00 18.1 16 Oeste 31 Oeste 0 942.6 0 39
2018-10-07 00:00:00 16.6 15 Oeste 23 Oeste 0 943 0.5 56
2018-10-06 23:00:00 17.4 10 Sudoeste 23 Sudoeste 0 942.7 0.7 65
2018-10-06 22:00:00 19.4 15 Sudoeste 23 Oeste 0 942.6 1.1 59
2018-10-06 21:00:00 20.9 12 Oeste 19 Oeste 0 942.5 1 56
2018-10-06 20:00:00 22.3 14 Oeste 22 Oeste 0 942 0.2 40
2018-10-06 19:00:00 24.8 8 Sudoeste 15 Sur 0 941.5 -0.6 33
2018-10-06 18:00:00 26.5 5 Sudoeste 14 Este 0 941.5 -1 30
2018-10-06 17:00:00 26.3 5 Sudeste 16 Este 0 941.8 -1.4 35
2018-10-06 16:00:00 25.5 7 Este 18 Este 0 942.1 -1.9 40
2018-10-06 15:00:00 26.5 11 Este 19 Este 0 942.5 -2 38
2018-10-06 14:00:00 26.1 8 Este 17 Este 0 943.2 -1.4 39
2018-10-06 13:00:00 24.2 8 Este 12 Sudeste 0 944 -0.4 45
2018-10-06 12:00:00 22.7 6 Sudeste 12 Este 0 944.5 0.5 53
2018-10-06 11:00:00 20.8 5 Este 10 Este 0 944.6 1 54
2018-10-06 10:00:00 18.2 0 Calma 16 Oeste 0 944.4 0.9 65
2018-10-06 09:00:00 13.8 9 Oeste 20 Oeste 0 944 0.7 65
2018-10-06 08:00:00 12.2 11 Oeste 18 Oeste 0 943.6 -0.1 75
2018-10-06 07:00:00 10.9 4 Oeste 11 Oeste 0 943.5 -0.4 87
2018-10-06 06:00:00 12.3 8 Oeste 19 Oeste 0 943.3 -1 83
2018-10-06 05:00:00 13 9 Oeste 18 Oeste 0 943.7 -0.8 82
2018-10-06 04:00:00 13.1 5 Oeste 18 Oeste 0 943.9 -0.7 82
2018-10-06 03:00:00 13.6 6 Sudoeste 17 Oeste 0 944.3 -0.5 82
2018-10-06 02:00:00 14 5 Sudoeste 12 Sudoeste 0 944.5 0 82
2018-10-06 01:00:00 14.3 3 Noroeste 11 Oeste 0 944.6 0.5 83
2018-10-06 00:00:00 15.9 8 Oeste 16 Sudoeste 0 944.8 1.1 77
2018-10-05 23:00:00 16.9 8 Sudoeste 16 Sudoeste 0 944.5 1.1 73
2018-10-05 22:00:00 18.3 8 Sudoeste 19 Oeste 0 944.1 1.4 69
2018-10-05 21:00:00 19 8 Oeste 17 Oeste 0 943.7 0.9 68
2018-10-05 20:00:00 19.5 7 Oeste 12 Oeste 0 943.4 0.5 66
2018-10-05 19:00:00 22.6 4 Sur 22 Este 0 942.7 -0.6 53
2018-10-05 18:00:00 23.3 10 Este 23 Nordeste 0 942.8 -0.9 49
2018-10-05 17:00:00 24.8 9 Este 18 Nordeste 0 942.9 -1.4 43
2018-10-05 16:00:00 24.9 11 Este 21 Este 0 943.3 -1.6 44
2018-10-05 15:00:00 24.8 8 Este 18 Nordeste 0 943.7 -1.8 42
2018-10-05 14:00:00 24.5 8 Este 17 Sudeste 0 944.3 -1.5 42
2018-10-05 13:00:00 23.5 10 Este 15 Este 0 944.9 -0.9 45
2018-10-05 12:00:00 22.6 5 Sudeste 14 Sur 0 945.5 -0.1 48
2018-10-05 11:00:00 20 2 Sur 8 Sur 0 945.8 0.7 59
2018-10-05 10:00:00 16.7 3 Este 6 Sur 0 945.8 0.6 70
2018-10-05 09:00:00 11.8 0 Calma 13 Sudoeste 0 945.6 0.5 92
2018-10-05 08:00:00 10.4 2 Oeste 12 Oeste 0 945.1 -0.1 91
2018-10-05 07:00:00 10.6 4 Oeste 9 Sudoeste 0 945.2 -0.4 90
2018-10-05 06:00:00 11.3 0 Calma 11 Oeste 0 945.1 -1.2 88
2018-10-05 05:00:00 12.6 8 Oeste 12 Oeste 0 945.2 -1.1 88
2018-10-05 04:00:00 11.9 5 Oeste 6 Oeste 0 945.6 -0.9 87
2018-10-05 03:00:00 12.9 4 Noroeste 14 Oeste 0 946.3 -0.5 83
2018-10-05 02:00:00 14.5 12 Oeste 19 Oeste 0 946.3 -0.4 80
2018-10-05 01:00:00 14.8 5 Oeste 20 Sudoeste 0 946.5 0.2 78
2018-10-05 00:00:00 16.6 13 Sudoeste 20 Sudoeste 0 946.8 1.1 77
2018-10-04 23:00:00 17.4 10 Oeste 19 Oeste 0 946.7 1.3 75
2018-10-04 22:00:00 18.1 14 Oeste 22 Oeste 0 946.3 1.3 73
2018-10-04 21:00:00 19.2 11 Oeste 19 Oeste 0 945.7 0.9 65
2018-10-04 20:00:00 19.5 5 Norte 15 Este 0 945.4 0.5 65
2018-10-04 19:00:00 22.4 6 Nordeste 21 Este 0 945 -0.2 52
2018-10-04 18:00:00 24.1 11 Este 23 Este 0 944.8 -0.9 48
2018-10-04 17:00:00 25.4 10 Este 20 Sudeste 0 944.9 -1.6 40
2018-10-04 16:00:00 26.1 5 Sur 17 Este 0 945.2 -1.8 35
2018-10-04 15:00:00 25.1 5 Norte 15 Este 0 945.7 -1.8 37
2018-10-04 14:00:00 24.6 4 Nordeste 14 Este 0 946.5 -1 38
2018-10-04 13:00:00 23 5 Sudeste 13 Este 0 947 -0.3 39
2018-10-04 12:00:00 21.5 6 Este 12 Este 0 947.5 0.7 43
2018-10-04 11:00:00 20.9 4 Este 8 Este 0 947.5 1 43
2018-10-04 10:00:00 17.7 2 Sudoeste 14 Oeste 0 947.3 0.9 55
2018-10-04 09:00:00 12.8 9 Oeste 20 Oeste 0 946.8 0.5 65
2018-10-04 08:00:00 11.4 7 Oeste 20 Oeste 0 946.5 0 71
2018-10-04 07:00:00 11.4 10 Oeste 18 Oeste 0 946.4 -0.3 72
2018-10-04 06:00:00 11.8 9 Oeste 18 Oeste 0 946.3 -1 70
2018-10-04 05:00:00 12 10 Oeste 17 Oeste 0 946.5 -1 72
2018-10-04 04:00:00 12.7 3 Oeste 14 Oeste 0 946.7 -1.2 70
2018-10-04 03:00:00 14.4 13 Oeste 20 Sudoeste 0 947.3 -0.5 62
2018-10-04 02:00:00 14 6 Oeste 22 Oeste 0 947.5 -0.3 65
2018-10-04 01:00:00 14.4 10 Oeste 18 Oeste 0 947.9 -0.1 62
2018-10-04 00:00:00 15 7 Sudoeste 14 Sudoeste 0 947.8 0 61
2018-10-03 23:00:00 16.2 8 Sudoeste 13 Sudoeste 0 947.8 0.4 59
2018-10-03 22:00:00 18.8 8 Sudoeste 18 Oeste 0 948 0.8 52
2018-10-03 21:00:00 18 8 Oeste 15 Oeste 0 947.8 0.5 48
2018-10-03 20:00:00 18.1 8 Noroeste 14 Noroeste 0 947.4 0.1 50
2018-10-03 19:00:00 22.2 2 Norte 10 Nordeste 0 947.2 -0.4 38
2018-10-03 18:00:00 24.3 7 Este 15 Nordeste 0 947.3 -0.8 26
2018-10-03 17:00:00 25.1 5 Este 19 Este 0 947.3 -1.6 24
2018-10-03 16:00:00 25.3 10 Este 22 Sudeste 0 947.6 -1.8 25
2018-10-03 15:00:00 25.2 9 Este 19 Este 0 948.1 -1.6 24
2018-10-03 14:00:00 24.4 9 Este 17 Sudeste 0 948.9 -0.7 28
2018-10-03 13:00:00 23.2 6 Este 16 Este 0 949.4 -0.1 32
2018-10-03 12:00:00 22.2 11 Este 18 Sudeste 0 949.7 0.7 35
2018-10-03 11:00:00 21.2 2 Sur 7 Sur 0 949.6 1.1 35
2018-10-03 10:00:00 17.1 6 Sur 11 Sudoeste 0 949.5 1.4 49
2018-10-03 09:00:00 11.4 3 Oeste 16 Oeste 0 949 1.1 73
2018-10-03 08:00:00 8.6 3 Noroeste 11 Oeste 0 948.5 1 87
2018-10-03 07:00:00 8.5 6 Oeste 9 Oeste 0 948.1 0.1 85
2018-10-03 06:00:00 9.7 4 Norte 14 Oeste 0 947.9 -0.3 79
2018-10-03 05:00:00 10.6 5 Oeste 18 Oeste 0 947.5 -0.7 76
2018-10-03 04:00:00 11.2 5 Oeste 14 Sudoeste 0 948 -0.3 77
2018-10-03 03:00:00 12.7 8 Oeste 14 Oeste 0 948.2 0.1 75
2018-10-03 02:00:00 12.8 9 Oeste 15 Oeste 0 948.2 -0.1 77
2018-10-03 01:00:00 14.1 4 Sudeste 15 Oeste 0 948.3 0.1 74
2018-10-03 00:00:00 14.6 9 Sudoeste 15 Sudoeste 0 948.1 0.5 78
2018-10-02 23:00:00 16.2 8 Sudoeste 17 Oeste 0 948.3 1.4 73
2018-10-02 22:00:00 17.2 9 Oeste 17 Oeste 0 948.2 1.7 69
2018-10-02 21:00:00 17.1 9 Oeste 13 Oeste 0 947.6 1.4 64
2018-10-02 20:00:00 18.1 4 Noroeste 13 Este 0 946.9 0.7 63
2018-10-02 19:00:00 21.1 10 Este 20 Este 0 946.5 0 50
2018-10-02 18:00:00 22.2 9 Este 17 Este 0 946.2 -0.7 48
2018-10-02 17:00:00 22.7 8 Este 18 Nordeste 0 946.2 -1.2 48
2018-10-02 16:00:00 22.7 8 Este 19 Este 0 946.5 -1.4 48
2018-10-02 15:00:00 22.5 8 Nordeste 17 Este 0 946.9 -1.1 43
2018-10-02 14:00:00 21.7 7 Este 18 Este 0 947.4 -0.2 33
2018-10-02 13:00:00 21.3 6 Este 15 Este 0 947.9 0.6 35
2018-10-02 12:00:00 20.6 3 Sudeste 11 Sudeste 0 948 1.1 33
2018-10-02 11:00:00 19.4 4 Sudeste 11 Oeste 0 947.6 1.1 40
2018-10-02 10:00:00 15 8 Sudoeste 18 Oeste 0 947.3 1.5 57
2018-10-02 09:00:00 11.7 10 Oeste 18 Oeste 0 946.9 1.4 65
2018-10-02 08:00:00 10 9 Oeste 21 Oeste 0 946.5 1 71
2018-10-02 07:00:00 10.7 13 Oeste 22 Oeste 0 945.8 0.3 84
2018-10-02 06:00:00 12.9 9 Oeste 15 Oeste 0 945.5 -0.1 83
2018-10-02 05:00:00 13.3 8 Oeste 14 Oeste 0 945.5 -0.1 81
2018-10-02 04:00:00 12.9 4 Oeste 11 Noroeste 0 945.5 -0.2 89
2018-10-02 03:00:00 14.2 6 Sudoeste 9 Sudoeste 0 945.6 0.2 90
2018-10-02 02:00:00 14.8 4 Noroeste 12 Nordeste 0 945.6 0.7 90
2018-10-02 01:00:00 14.9 3 Sur 9 Sudoeste 0 945.7 1.2 91
2018-10-02 00:00:00 13.4 4 Noroeste 7 Nordeste 0 945.4 1.6 88
2018-10-01 23:00:00 14.8 4 Oeste 8 Oeste 0 944.9 1.7 84
2018-10-01 22:00:00 16.8 2 Oeste 11 Oeste 0 944.5 1.6 76
2018-10-01 21:00:00 18.1 8 Oeste 11 Oeste 0 943.8 1.2 71
2018-10-01 20:00:00 21.4 6 Oeste 13 Sudoeste 0 943.2 0.5 58
2018-10-01 19:00:00 24 6 Sudoeste 16 Sudoeste 0 942.9 -0.2 48
2018-10-01 18:00:00 25.2 8 Sudoeste 14 Sudoeste 0 942.6 -1 43
2018-10-01 17:00:00 25.7 6 Sudeste 22 Este 0 942.7 -1.6 31
2018-10-01 16:00:00 26.4 7 Nordeste 24 Este 0 943.1 -1.9 34
2018-10-01 15:00:00 25.9 11 Nordeste 23 Este 0 943.6 -1.6 36
2018-10-01 14:00:00 25 10 Este 20 Este 0 944.3 -0.5 44
2018-10-01 13:00:00 23.7 10 Este 15 Este 0 945 0.5 44
2018-10-01 12:00:00 21.4 6 Este 13 Nordeste 0 945.2 1.4 52
2018-10-01 11:00:00 23 5 Este 9 Sudeste 0 944.8 1.4 45
2018-10-01 10:00:00 19.5 0 Calma 6 Sudoeste 0 944.5 1.4 63
2018-10-01 09:00:00 14.7 0 Calma 7 Noroeste 0 943.8 0.7 82
2018-10-01 08:00:00 13.3 3 Noroeste 11 Oeste 0 943.4 0.3 84
2018-10-01 07:00:00 13.2 5 Oeste 10 Oeste 0 943.1 -0.4 83
2018-10-01 06:00:00 14.8 2 Noroeste 18 Oeste 0 943.1 -1 74
2018-10-01 05:00:00 14.2 4 Noroeste 17 Oeste 0 943.1 -1.1 78
2018-10-01 04:00:00 16.4 11 Oeste 21 Oeste 0 943.5 -0.9 66
2018-10-01 03:00:00 15.4 8 Oeste 15 Oeste 0 944.1 -0.4 75
2018-10-01 02:00:00 16.6 9 Oeste 15 Oeste 0 944.2 -0.2 73
2018-10-01 01:00:00 16.2 7 Sudoeste 13 Sudoeste 0 944.4 0.2 77
2018-10-01 00:00:00 17.9 9 Sudoeste 21 Oeste 0 944.5 0.5 68
2018-09-30 23:00:00 18.9 10 Oeste 15 Oeste 0 944.4 0.9 66
2018-09-30 22:00:00 20.5 10 Sudoeste 19 Oeste 0 944.2 1.1 65
2018-09-30 21:00:00 21.4 9 Oeste 15 Oeste 0 944 1 62
2018-09-30 20:00:00 21.7 8 Oeste 12 Oeste 0 943.5 0.5 59
2018-09-30 19:00:00 23.8 2 Norte 15 Sudeste 0 943.1 -0.2 46
2018-09-30 18:00:00 26.3 9 Este 18 Este 0 943 -0.8 31
2018-09-30 17:00:00 27.5 9 Este 17 Este 0 943 -1.5 26
2018-09-30 16:00:00 27.5 8 Este 17 Sudeste 0 943.3 -1.7 29
2018-09-30 15:00:00 26.8 8 Este 15 Este 0 943.8 -1.6 29
2018-09-30 14:00:00 25.8 8 Este 14 Este 0 944.5 -1 32
2018-09-30 13:00:00 24.1 6 Este 12 Sudeste 0 945 -0.2 39
2018-09-30 12:00:00 23 4 Sudeste 9 Este 0 945.4 0.7 45
2018-09-30 11:00:00 20.8 3 Sudeste 7 Sudeste 0 945.5 1.2 52
2018-09-30 10:00:00 16.7 5 Sudoeste 11 Sudoeste 0 945.2 1.2 58
2018-09-30 09:00:00 10.3 2 Oeste 8 Oeste 0 944.7 0.7 89
2018-09-30 08:00:00 9.5 5 Oeste 10 Oeste 0 944.3 0.3 87
2018-09-30 07:00:00 11.1 7 Oeste 17 Oeste 0 944 -0.1 76
2018-09-30 06:00:00 10.8 6 Oeste 16 Oeste 0 944 -0.1 80
2018-09-30 05:00:00 10.4 5 Oeste 13 Oeste 0 944 -0.2 86
2018-09-30 04:00:00 10.8 3 Oeste 10 Oeste 0 944.1 -0.2 85
2018-09-30 03:00:00 12.3 4 Oeste 20 Oeste 0 944.1 -0.3 78
2018-09-30 02:00:00 13.7 8 Oeste 16 Oeste 0 944.2 -0.2 72
2018-09-30 01:00:00 13.7 8 Oeste 15 Oeste 0 944.3 0.4 75
2018-09-30 00:00:00 14.6 4 Sudoeste 11 Oeste 0 944.4 1 78
2018-09-29 23:00:00 16.7 7 Sudoeste 13 Oeste 0 944.4 1.7 72
2018-09-29 22:00:00 16.5 4 Noroeste 10 Noroeste 0 943.9 1.6 70
2018-09-29 21:00:00 17.2 4 Noroeste 10 Noroeste 0 943.4 1.3 49
2018-09-29 20:00:00 19 5 Norte 12 Este 0 942.7 0.4 46
2018-09-29 19:00:00 23.6 7 Este 22 Este 0 942.3 -0.3 28
2018-09-29 18:00:00 25 9 Este 17 Este 0 942.1 -1 29
2018-09-29 17:00:00 26.1 6 Este 17 Sudeste 0 942.3 -1.5 24
2018-09-29 16:00:00 26.4 8 Este 16 Este 0 942.6 -1.7 26
2018-09-29 15:00:00 26.3 7 Este 13 Este 0 943.1 -1.7 26
2018-09-29 14:00:00 25.8 5 Este 10 Sudeste 0 943.8 -1.4 19
2018-09-29 13:00:00 24.8 4 Sudeste 10 Sudeste 0 944.3 -0.6 29
2018-09-29 12:00:00 23.1 5 Sudeste 10 Sudeste 0 944.8 0.2 47
2018-09-29 11:00:00 21.2 3 Sudeste 8 Sur 0 945.2 0.9 50
2018-09-29 10:00:00 16.9 6 Oeste 17 Oeste 0 944.9 0.8 65
2018-09-29 09:00:00 12.8 7 Oeste 19 Sudoeste 0 944.6 0.4 78
2018-09-29 08:00:00 11.7 11 Oeste 22 Oeste 0 944.3 -0.2 81
2018-09-29 07:00:00 11.8 13 Oeste 20 Oeste 0 944.1 -0.7 81
2018-09-29 06:00:00 12.3 12 Oeste 17 Oeste 0 944.2 -0.8 81
2018-09-29 05:00:00 11.6 5 Oeste 15 Oeste 0 944.5 -0.6 88
2018-09-29 04:00:00 13.2 11 Oeste 15 Oeste 0 944.8 -0.7 79
2018-09-29 03:00:00 11.9 3 Oeste 10 Sudoeste 0 945 -0.5 89
2018-09-29 02:00:00 12.8 5 Oeste 9 Sudoeste 0 945.1 -0.3 88
2018-09-29 01:00:00 13.9 4 Sur 10 Oeste 0 945.5 0 84
2018-09-29 00:00:00 15.5 7 Sudoeste 11 Oeste 0 945.5 0.5 78
2018-09-28 23:00:00 17.2 8 Sudoeste 17 Oeste 0 945.4 0.6 77
2018-09-28 22:00:00 17 8 Oeste 13 Oeste 0 945.5 0.8 70
2018-09-28 21:00:00 17.9 5 Noroeste 11 Noroeste 0 945 0.3 67
2018-09-28 20:00:00 19.9 3 Nordeste 15 Este 0 944.8 -0.3 63
2018-09-28 19:00:00 22.6 9 Este 20 Nordeste 0 944.7 -0.8 48
2018-09-28 18:00:00 23.8 7 Este 17 Nordeste 0 944.7 -1.4 40
2018-09-28 17:00:00 24.5 9 Este 15 Sudeste 0 945.1 -1.8 43
2018-09-28 16:00:00 25.2 4 Sudeste 16 Sudeste 0 945.5 -2.4 38
2018-09-28 15:00:00 24.4 8 Este 15 Este 0 946.1 -2.4 30
2018-09-28 14:00:00 24.1 6 Sur 19 Sudoeste 0 946.9 -1.8 45
2018-09-28 13:00:00 23.2 5 Sudeste 13 Sur 0 947.9 -0.8 51
2018-09-28 12:00:00 21.8 5 Sudeste 10 Sur 0 948.5 0 59
2018-09-28 11:00:00 20.3 3 Sudeste 11 Este 0 948.7 0.4 64
2018-09-28 10:00:00 18.7 4 Este 11 Sur 0 948.7 0.6 72
2018-09-28 09:00:00 14.6 8 Oeste 13 Sudoeste 0 948.5 0.5 86
2018-09-28 08:00:00 13.4 3 Sudoeste 8 Oeste 0 948.3 -0.1 92
2018-09-28 07:00:00 12.9 4 Oeste 9 Oeste 0 948.1 -0.9 92
2018-09-28 06:00:00 12.2 2 Oeste 7 Oeste 0 948 -1.9 91
2018-09-28 05:00:00 13 4 Oeste 11 Oeste 0 948.4 -1.8 89
2018-09-28 04:00:00 13.2 3 Oeste 8 Oeste 0 949 -1.8 89
2018-09-28 03:00:00 14.1 4 Oeste 10 Oeste 0 949.9 -1.4 86
2018-09-28 02:00:00 15.4 5 Noroeste 12 Noroeste 0 950.2 -1.4 81
2018-09-28 01:00:00 16.3 4 Noroeste 5 Noroeste 0 950.8 -0.8 85
2018-09-28 00:00:00 16.3 4 Norte 8 Norte 0 951.3 0 81
2018-09-27 23:00:00 17 5 Norte 10 Norte 0 951.6 0.5 80
2018-09-27 22:00:00 17.4 5 Norte 11 Norte 0 951.6 0.5 78
2018-09-27 21:00:00 18.1 3 Nordeste 20 Este 0 951.3 -0.2 75
2018-09-27 20:00:00 19.6 8 Este 14 Este 0 951.1 -0.7 71
2018-09-27 19:00:00 21.3 8 Este 15 Este 0 951.1 -1.1 63
2018-09-27 18:00:00 22 6 Este 15 Este 0 951.5 -1.3 60
2018-09-27 17:00:00 22.5 4 Este 14 Este 0 951.8 -1.8 61
2018-09-27 16:00:00 22.3 9 Este 15 Este 0 952.2 -1.8 61
2018-09-27 15:00:00 21.9 5 Nordeste 13 Nordeste 0 952.8 -1.9 62
2018-09-27 14:00:00 21 7 Nordeste 17 Nordeste 0 953.6 -1.4 67
2018-09-27 13:00:00 22 5 Nordeste 14 Nordeste 0 954 -0.9 63
2018-09-27 12:00:00 20.4 3 Norte 9 Norte 0 954.7 0.1 72
2018-09-27 11:00:00 19.3 4 Noroeste 9 Nordeste 0 955 0.6 79
2018-09-27 10:00:00 17.9 5 Este 13 Este 0 954.9 0.7 84
2018-09-27 09:00:00 17.4 3 Sudeste 10 Norte 0 954.6 0.6 88
2018-09-27 08:00:00 17.3 5 Nordeste 14 Nordeste 0 954.4 0.1 87
2018-09-27 07:00:00 17.3 5 Norte 17 Norte 0 954.2 -0.4 87
2018-09-27 06:00:00 17.3 8 Nordeste 19 Norte 0 954 -0.9 87
2018-09-27 05:00:00 17.1 7 Norte 16 Nordeste 0.2 954.3 -0.8 88
2018-09-27 04:00:00 17.2 7 Nordeste 15 Nordeste 0.4 954.6 -0.9 89
2018-09-27 03:00:00 17 6 Nordeste 18 Norte 0 954.9 -0.3 88
2018-09-27 02:00:00 16.9 7 Norte 17 Norte 0.2 955.1 0.1 88
2018-09-27 01:00:00 17.2 6 Norte 22 Norte 0.2 955.5 0.6 85
2018-09-27 00:00:00 18.1 7 Nordeste 21 Nordeste 0 955.2 0.7 79
2018-09-26 23:00:00 17.9 7 Norte 20 Nordeste 0 955 0.7 81
2018-09-26 22:00:00 17.4 6 Nordeste 19 Norte 0 954.9 0.6 86
2018-09-26 21:00:00 17.6 7 Norte 19 Nordeste 0 954.5 1.2 87
2018-09-26 20:00:00 17.9 10 Norte 22 Norte 0.6 954.3 1.4 88
2018-09-26 19:00:00 18.1 8 Nordeste 30 Nordeste 8.6 954.3 1.4 88
2018-09-26 18:00:00 19.5 10 Nordeste 31 Norte 1.2 953.3 -0.2 86
2018-09-26 17:00:00 22.4 9 Este 29 Nordeste 0 952.9 -0.9 67
2018-09-26 16:00:00 24 11 Nordeste 23 Nordeste 0 952.9 -1.2 58
2018-09-26 15:00:00 22.6 9 Nordeste 24 Norte 0 953.5 -0.7 65
2018-09-26 14:00:00 22.5 10 Nordeste 22 Nordeste 0 953.8 -0.3 61
2018-09-26 13:00:00 22.6 8 Nordeste 23 Nordeste 0 954.1 0.5 65
2018-09-26 12:00:00 21 7 Nordeste 22 Este 0 954.2 1 72
2018-09-26 11:00:00 20.7 9 Nordeste 20 Nordeste 0 954.1 1.5 75
2018-09-26 10:00:00 19.2 9 Nordeste 18 Nordeste 0 953.6 1.5 82
2018-09-26 09:00:00 18.4 6 Nordeste 12 Nordeste 0 953.2 1.3 91
2018-09-26 08:00:00 18.3 2 Noroeste 7 Nordeste 0 952.6 1 91
2018-09-26 07:00:00 18.3 4 Nordeste 13 Nordeste 0 952.1 0.4 90
2018-09-26 06:00:00 18.4 9 Nordeste 20 Nordeste 0 951.9 -0.1 90
2018-09-26 05:00:00 18.6 9 Nordeste 18 Este 2.6 951.6 -0.4 91
2018-09-26 04:00:00 18.9 5 Nordeste 19 Nordeste 3.6 951.7 -0.2 90
2018-09-26 03:00:00 19.3 9 Este 17 Este 0 952 0.4 87
2018-09-26 02:00:00 19.7 10 Este 17 Este 0 952 0.8 85
2018-09-26 01:00:00 20.2 5 Nordeste 18 Este 0 951.9 1.3 83
2018-09-26 00:00:00 20.4 7 Este 26 Este 0 951.6 1.6 82
2018-09-25 23:00:00 20.9 11 Este 22 Este 0 951.2 2 82
2018-09-25 22:00:00 21.1 15 Este 25 Este 0 950.6 2 80
2018-09-25 21:00:00 22.2 12 Este 21 Nordeste 0 950 1.8 74
2018-09-25 20:00:00 23.4 10 Este 27 Este 0 949.2 0.9 67
2018-09-25 19:00:00 24.5 10 Este 22 Este 0 948.6 0 61
2018-09-25 18:00:00 25.8 12 Este 27 Este 0 948.2 -0.9 59
2018-09-25 17:00:00 26.7 10 Este 26 Nordeste 0 948.3 -1.5 56
2018-09-25 16:00:00 27 12 Este 25 Este 0 948.6 -1.9 53
2018-09-25 15:00:00 27.7 10 Este 23 Nordeste 0 949.1 -1.6 50
2018-09-25 14:00:00 27.4 9 Este 17 Este 0 949.8 -1 48
2018-09-25 13:00:00 25.4 8 Nordeste 13 Este 0 950.5 0.1 55
2018-09-25 12:00:00 24.1 3 Sudeste 13 Este 0 950.7 0.9 60
2018-09-25 11:00:00 23.8 4 Sudeste 13 Este 0 950.8 1.8 62
2018-09-25 10:00:00 22 5 Este 11 Este 0 950.4 1.7 71
2018-09-25 09:00:00 19.7 2 Este 8 Este 0 949.8 1.3 83
2018-09-25 08:00:00 17.5 3 Nordeste 7 Nordeste 0 949 0.5 89
2018-09-25 07:00:00 16.8 0 Calma 5 Sudeste 0 948.7 0.1 91
2018-09-25 06:00:00 16.3 0 Calma 5 Noroeste 0 948.5 -0.2 90
2018-09-25 05:00:00 16.9 2 Sudoeste 7 Nordeste 0 948.5 -0.1 87
2018-09-25 04:00:00 17.1 4 Norte 9 Norte 0 948.6 0.1 84
2018-09-25 03:00:00 16.8 4 Noroeste 6 Noroeste 0 948.7 0 79
2018-09-25 02:00:00 17.4 3 Noroeste 10 Oeste 0 948.6 -0.1 74
2018-09-25 01:00:00 19.6 5 Oeste 18 Sudoeste 0 948.5 0.3 63
2018-09-25 00:00:00 21.1 6 Oeste 18 Sudoeste 0 948.7 1.2 55
2018-09-24 23:00:00 19.6 2 Oeste 8 Norte 0 948.7 1.8 68
2018-09-24 22:00:00 21.3 5 Norte 12 Norte 0 948.2 1.8 58
2018-09-24 21:00:00 22.6 4 Noroeste 9 Noroeste 0 947.5 1.3 56
2018-09-24 20:00:00 25.5 5 Noroeste 19 Nordeste 0 946.9 0.4 47
2018-09-24 19:00:00 28.5 12 Este 27 Este 0 946.4 -0.6 36
2018-09-24 18:00:00 30.2 8 Nordeste 24 Nordeste 0 946.2 -1.5 32
2018-09-24 17:00:00 31 13 Este 22 Este 0 946.5 -2 30
2018-09-24 16:00:00 32.2 9 Este 20 Este 0 947 -2 28
2018-09-24 15:00:00 32.1 8 Este 18 Este 0 947.7 -1.6 26
2018-09-24 14:00:00 32 5 Nordeste 15 Este 0 948.5 -0.9 26
2018-09-24 13:00:00 31.1 5 Este 10 Este 0 949 -0.1 25
2018-09-24 12:00:00 29.6 3 Sudeste 8 Sudeste 0 949.3 0.7 30
2018-09-24 11:00:00 27.8 3 Sur 7 Sudeste 0 949.4 1.1 36
2018-09-24 10:00:00 23.2 2 Sudeste 11 Oeste 0 949.1 1.2 54
2018-09-24 09:00:00 18.6 9 Oeste 13 Oeste 0 948.6 0.8 64
2018-09-24 08:00:00 15.4 3 Oeste 12 Oeste 0 948.3 0.4 77
2018-09-24 07:00:00 17 6 Oeste 15 Oeste 0 947.9 -0.3 67
2018-09-24 06:00:00 18.5 10 Oeste 17 Oeste 0 947.8 -0.6 58
2018-09-24 05:00:00 15.9 4 Oeste 11 Oeste 0 947.9 -0.7 75
2018-09-24 04:00:00 16.7 2 Noroeste 10 Sudoeste 0 948.2 -0.6 73
2018-09-24 03:00:00 18.5 9 Sudoeste 15 Oeste 0 948.4 -0.6 60
2018-09-24 02:00:00 18.2 6 Oeste 12 Oeste 0 948.6 -0.4 65
2018-09-24 01:00:00 19.9 6 Oeste 13 Oeste 0 948.8 -0.2 59
2018-09-24 00:00:00 21 8 Sudoeste 13 Sudoeste 0 949 0.4 52
2018-09-23 23:00:00 22.6 10 Sudoeste 16 Sudoeste 0 949 0.6 47
2018-09-23 22:00:00 24.4 10 Sudoeste 19 Oeste 0 949 0.9 39
2018-09-23 21:00:00 25.2 11 Oeste 22 Oeste 0 948.6 0.7 37
2018-09-23 20:00:00 25.1 5 Noroeste 15 Nordeste 0 948.4 0.3 46
2018-09-23 19:00:00 28.9 10 Este 21 Este 0 948.1 -0.3 27
2018-09-23 18:00:00 30.3 10 Este 22 Este 0 947.9 -1.2 24
2018-09-23 17:00:00 31.2 8 Este 19 Nordeste 0 948.1 -1.7 26
2018-09-23 16:00:00 31.5 8 Nordeste 19 Este 0 948.4 -1.8 26
2018-09-23 15:00:00 32.6 6 Sudeste 16 Sudeste 0 949.1 -1.5 23
2018-09-23 14:00:00 31.1 7 Este 15 Este 0 949.8 -0.9 26
2018-09-23 13:00:00 30.6 9 Este 17 Este 0 950.2 -0.2 30
2018-09-23 12:00:00 29.3 5 Este 9 Este 0 950.6 0.8 36
2018-09-23 11:00:00 26.9 4 Sudeste 9 Oeste 0 950.7 1 45
2018-09-23 10:00:00 22.6 5 Sudoeste 15 Oeste 0 950.4 0.9 58
2018-09-23 09:00:00 18.3 10 Oeste 19 Sudoeste 0 949.8 0.3 67
2018-09-23 08:00:00 15.8 5 Oeste 17 Oeste 0 949.7 0.3 81
2018-09-23 07:00:00 16.3 7 Oeste 12 Oeste 0 949.5 -0.1 79
2018-09-23 06:00:00 16.5 5 Oeste 19 Oeste 0 949.5 -0.5 79
2018-09-23 05:00:00 18 10 Oeste 14 Oeste 0 949.4 -0.7 71
2018-09-23 04:00:00 17.5 0 Calma 17 Oeste 0 949.6 -0.5 75
2018-09-23 03:00:00 18.7 10 Oeste 18 Oeste 0 950 0 72
2018-09-23 02:00:00 17.7 3 Oeste 10 Sudoeste 0 950.1 0 80
2018-09-23 01:00:00 19.6 5 Oeste 16 Oeste 0 950.1 0.1 71
2018-09-23 00:00:00 20.5 3 Oeste 14 Sudoeste 0 950 0.5 69
2018-09-22 23:00:00 22.2 11 Sudoeste 20 Sudoeste 0 950.1 0.9 64
2018-09-22 22:00:00 23.7 12 Oeste 18 Oeste 0 950 1.4 55
2018-09-22 21:00:00 24.4 10 Oeste 17 Oeste 0 949.5 1.1 56
2018-09-22 20:00:00 24.8 5 Noroeste 17 Este 0 949.2 0.6 56
2018-09-22 19:00:00 28.2 7 Este 19 Este 0 948.6 -0.4 41
2018-09-22 18:00:00 29.6 10 Este 19 Este 0 948.4 -1 40
2018-09-22 17:00:00 30.5 8 Este 16 Este 0 948.6 -1.3 33
2018-09-22 16:00:00 30.8 8 Este 16 Este 0 949 -1.4 32
2018-09-22 15:00:00 30.8 6 Este 15 Este 0 949.4 -1.2 35
2018-09-22 14:00:00 30.1 4 Nordeste 11 Este 0 949.9 -0.6 39
2018-09-22 13:00:00 28.4 4 Este 12 Sudeste 0 950.4 0.6 43
2018-09-22 12:00:00 27.8 4 Este 10 Nordeste 0 950.6 1.3 44
2018-09-22 11:00:00 25.4 4 Este 10 Este 0 950.5 1.8 53
2018-09-22 10:00:00 22.1 3 Este 5 Sudoeste 0 949.8 1.4 61
2018-09-22 09:00:00 17.3 0 Calma 8 Oeste 0 949.3 1.3 80
2018-09-22 08:00:00 16.3 7 Oeste 17 Oeste 0 948.7 0.9 78
2018-09-22 07:00:00 16.9 9 Oeste 17 Oeste 0 948.4 0.5 75
2018-09-22 06:00:00 17.5 11 Oeste 15 Oeste 0 948 0 73
2018-09-22 05:00:00 18.1 11 Oeste 17 Oeste 0 947.8 -0.1 72
2018-09-22 04:00:00 16.7 3 Noroeste 14 Oeste 0 947.9 0 78
2018-09-22 03:00:00 17.8 6 Oeste 22 Oeste 0 948 0.3 76
2018-09-22 02:00:00 19.7 13 Oeste 20 Oeste 0 947.9 0.6 69
2018-09-22 01:00:00 20.1 7 Oeste 16 Sudoeste 0 947.9 0.9 68
2018-09-22 00:00:00 20.8 9 Oeste 13 Oeste 0 947.7 1.6 68
2018-09-21 23:00:00 22 6 Sudoeste 14 Oeste 0 947.3 2 66
2018-09-21 22:00:00 23.9 10 Oeste 15 Oeste 0 947 2.3 59
2018-09-21 21:00:00 25 11 Oeste 18 Oeste 0 946.1 1.6 55
2018-09-21 20:00:00 25.6 6 Oeste 13 Sudoeste 0 945.3 0.6 52
2018-09-21 19:00:00 29 3 Sudeste 11 Sudeste 0 944.7 -0.4 34
2018-09-21 18:00:00 30.2 6 Este 16 Este 0 944.5 -0.9 25
2018-09-21 17:00:00 30.6 7 Nordeste 21 Este 0 944.7 -1.3 25
2018-09-21 16:00:00 31 8 Este 20 Este 0 945.1 -1.3 25
2018-09-21 15:00:00 31 11 Este 20 Este 0 945.4 -1.1 26
2018-09-21 14:00:00 30.2 11 Este 21 Nordeste 0 946 -0.3 33
2018-09-21 13:00:00 30.3 6 Sudeste 11 Este 0 946.4 0.4 35
2018-09-21 12:00:00 28.8 5 Sudeste 10 Sudeste 0 946.5 0.6 38
2018-09-21 11:00:00 25.1 5 Sudoeste 14 Sudoeste 0 946.3 0.8 51
2018-09-21 10:00:00 21.6 9 Sudoeste 14 Sudoeste 0 946 1 63
2018-09-21 09:00:00 17.9 7 Oeste 14 Oeste 0 945.9 1 74
2018-09-21 08:00:00 14.3 6 Oeste 13 Oeste 0 945.5 0.6 89
2018-09-21 07:00:00 14.7 2 Oeste 15 Oeste 0 945 -0.2 86
2018-09-21 06:00:00 15.9 5 Oeste 15 Oeste 0 944.9 -0.7 82
2018-09-21 05:00:00 15.7 6 Oeste 15 Oeste 0 944.9 -1.1 84
2018-09-21 04:00:00 16.6 5 Oeste 15 Oeste 0 945.2 -0.8 81
2018-09-21 03:00:00 17.1 11 Oeste 17 Oeste 0 945.6 -0.6 80
2018-09-21 02:00:00 16.4 6 Oeste 11 Oeste 0 946 -0.1 87
2018-09-21 01:00:00 17.7 4 Sudoeste 9 Oeste 0 946 0 83
2018-09-21 00:00:00 19 9 Oeste 17 Oeste 0 946.2 0.6 79
2018-09-20 23:00:00 20 6 Sudoeste 13 Sudoeste 0 946.1 0.9 77
2018-09-20 22:00:00 21.5 4 Sudoeste 18 Oeste 0 946 0.9 73
2018-09-20 21:00:00 22.6 9 Oeste 16 Oeste 0 945.6 0.3 67
2018-09-20 20:00:00 23.3 4 Noroeste 10 Nordeste 0 945.2 -0.4 59
2018-09-20 19:00:00 26.8 6 Este 19 Sudeste 0 945.1 -0.9 43
2018-09-20 18:00:00 27.8 10 Sudeste 21 Este 0 945.3 -1.2 40
2018-09-20 17:00:00 28.5 5 Sudeste 15 Sudeste 0 945.6 -1.7 31
2018-09-20 16:00:00 29.2 8 Este 17 Sudeste 0 946 -1.8 31
2018-09-20 15:00:00 28.6 6 Nordeste 17 Nordeste 0 946.5 -1.6 37
2018-09-20 14:00:00 28.4 7 Este 17 Este 0 947.3 -0.8 42
2018-09-20 13:00:00 27.3 7 Este 15 Este 0 947.8 -0.3 45
2018-09-20 12:00:00 26.7 5 Este 11 Este 0 948.1 0.1 49
2018-09-20 11:00:00 24.7 3 Sudeste 8 Sur 0 948.1 0.3 56
2018-09-20 10:00:00 21.2 5 Sur 16 Oeste 0 948.1 0.5 68
2018-09-20 09:00:00 17.2 6 Oeste 17 Oeste 0 948 0.4 80
2018-09-20 08:00:00 16.5 6 Oeste 13 Oeste 0 947.8 0.2 90
2018-09-20 07:00:00 16.9 4 Oeste 9 Oeste 0 947.6 -0.4 88
2018-09-20 06:00:00 16.6 2 Sudoeste 6 Oeste 0 947.6 -0.9 90
2018-09-20 05:00:00 17 5 Oeste 13 Oeste 0 947.6 -1 86
2018-09-20 04:00:00 17.9 6 Oeste 17 Oeste 0 948 -0.9 85
2018-09-20 03:00:00 18.4 9 Oeste 16 Sudoeste 0 948.5 -0.5 87
2018-09-20 02:00:00 18.8 8 Oeste 13 Oeste 0 948.6 -0.2 87
2018-09-20 01:00:00 18.8 2 Norte 7 Oeste 0 948.9 0.6 87
2018-09-20 00:00:00 20 0 Calma 10 Sudoeste 0 949 1.6 86